createdAt,value
2023-03-30T00:00:20.506Z,39.44
2023-03-30T00:00:46.057Z,39.51
2023-03-30T00:01:11.901Z,39.42
2023-03-30T00:01:33.707Z,39.47
2023-03-30T00:01:56.381Z,39.74
2023-03-30T00:02:18.708Z,39.63
2023-03-30T00:02:43.850Z,39.35
2023-03-30T00:03:05.659Z,39.37
2023-03-30T00:03:29.794Z,39.71
2023-03-30T00:03:55.098Z,39.62
2023-03-30T00:04:18.829Z,39.38
2023-03-30T00:04:43.003Z,39.48
2023-03-30T00:05:06.684Z,39.78
2023-03-30T00:05:28.719Z,39.33
2023-03-30T00:05:51.647Z,39.70
2023-03-30T00:06:21.091Z,39.42
2023-03-30T00:06:43.693Z,39.62
2023-03-30T00:07:05.512Z,39.32
2023-03-30T00:07:27.621Z,39.57
2023-03-30T00:07:49.216Z,39.48
2023-03-30T00:08:10.829Z,39.42
2023-03-30T00:08:33.581Z,39.35
2023-03-30T00:08:57.350Z,39.19
2023-03-30T00:09:19.237Z,39.39
2023-03-30T00:09:43.310Z,39.50
2023-03-30T00:10:06.952Z,39.13
2023-03-30T00:10:29.395Z,39.21
2023-03-30T00:10:52.843Z,39.41
2023-03-30T00:11:17.251Z,38.93
2023-03-30T00:11:38.838Z,39.02
2023-03-30T00:12:03.539Z,39.00
2023-03-30T00:12:25.206Z,39.07
2023-03-30T00:12:51.857Z,39.20
2023-03-30T00:13:14.044Z,38.89
2023-03-30T00:13:37.280Z,38.80
2023-03-30T00:13:58.914Z,38.95
2023-03-30T00:14:23.406Z,38.84
2023-03-30T00:14:45.062Z,39.08
2023-03-30T00:15:09.524Z,39.25
2023-03-30T00:15:31.252Z,38.81
2023-03-30T00:15:54.264Z,39.15
2023-03-30T00:16:17.474Z,38.73
2023-03-30T00:16:39.365Z,38.85
2023-03-30T00:17:01.086Z,38.82
2023-03-30T00:17:22.961Z,38.72
2023-03-30T00:17:46.378Z,38.97
2023-03-30T00:18:09.241Z,38.95
2023-03-30T00:18:31.017Z,38.63
2023-03-30T00:18:52.674Z,38.71
2023-03-30T00:19:16.668Z,38.80
2023-03-30T00:19:38.653Z,38.84
2023-03-30T00:20:02.045Z,38.98
2023-03-30T00:21:11.016Z,39.01
2023-03-30T00:21:33.442Z,38.81
2023-03-30T00:21:55.071Z,38.68
2023-03-30T00:22:16.753Z,38.94
2023-03-30T00:22:38.668Z,39.11
2023-03-30T00:23:01.336Z,38.76
2023-03-30T00:23:22.922Z,39.02
2023-03-30T00:23:46.973Z,38.71
2023-03-30T00:24:08.978Z,38.67
2023-03-30T00:24:30.666Z,38.85
2023-03-30T00:24:53.325Z,38.68
2023-03-30T00:25:16.689Z,38.53
2023-03-30T00:25:39.295Z,38.49
2023-03-30T00:26:02.207Z,38.90
2023-03-30T00:26:23.976Z,38.69
2023-03-30T00:26:45.897Z,38.76
2023-03-30T00:27:07.717Z,38.55
2023-03-30T00:27:29.380Z,38.81
2023-03-30T00:27:52.088Z,38.43
2023-03-30T00:28:14.069Z,38.85
2023-03-30T00:28:36.435Z,38.56
2023-03-30T00:28:59.029Z,38.65
2023-03-30T00:29:20.864Z,38.54
2023-03-30T00:29:44.108Z,38.71
2023-03-30T00:30:10.071Z,38.59
2023-03-30T00:30:32.799Z,38.52
2023-03-30T00:30:56.534Z,38.24
2023-03-30T00:31:20.208Z,38.64
2023-03-30T00:31:42.589Z,38.60
2023-03-30T00:32:05.875Z,38.10
2023-03-30T00:32:27.528Z,38.29
2023-03-30T00:32:49.180Z,38.31
2023-03-30T00:33:10.963Z,38.62
2023-03-30T00:33:44.950Z,38.44
2023-03-30T00:34:09.559Z,38.25
2023-03-30T00:34:31.106Z,38.58
2023-03-30T00:34:52.830Z,38.60
2023-03-30T00:35:15.993Z,38.39
2023-03-30T00:35:37.759Z,38.64
2023-03-30T00:35:59.940Z,38.64
2023-03-30T00:36:22.915Z,38.29
2023-03-30T00:36:46.671Z,38.21
2023-03-30T00:37:08.274Z,38.52
2023-03-30T00:37:29.867Z,38.49
2023-03-30T00:37:52.459Z,38.78
2023-03-30T00:38:14.089Z,38.81
2023-03-30T00:38:35.773Z,38.46
2023-03-30T00:38:57.455Z,38.45
2023-03-30T00:39:22.713Z,38.51
2023-03-30T00:39:45.516Z,38.39
2023-03-30T00:40:13.426Z,38.44
2023-03-30T00:40:37.215Z,38.63
2023-03-30T00:41:01.004Z,38.47
2023-03-30T00:41:23.732Z,38.77
2023-03-30T00:41:45.747Z,38.78
2023-03-30T00:42:07.403Z,38.57
2023-03-30T00:42:29.062Z,38.46
2023-03-30T00:42:50.936Z,38.76
2023-03-30T00:43:13.600Z,38.48
2023-03-30T00:43:35.319Z,38.62
2023-03-30T00:44:00.000Z,38.61
2023-03-30T00:45:00.389Z,38.60
2023-03-30T00:45:24.268Z,38.82
2023-03-30T00:45:45.947Z,38.87
2023-03-30T00:46:09.985Z,38.53
2023-03-30T00:46:32.067Z,38.54
2023-03-30T00:46:54.019Z,38.56
2023-03-30T00:47:16.462Z,38.67
2023-03-30T00:47:42.100Z,38.55
2023-03-30T00:48:08.278Z,38.34
2023-03-30T00:48:33.018Z,38.55
2023-03-30T00:48:57.846Z,38.79
2023-03-30T00:49:21.619Z,38.83
2023-03-30T00:49:43.919Z,38.53
2023-03-30T00:50:09.407Z,38.44
2023-03-30T00:50:35.217Z,38.59
2023-03-30T00:51:02.807Z,38.26
2023-03-30T00:51:26.451Z,38.41
2023-03-30T00:51:50.790Z,38.43
2023-03-30T00:52:19.386Z,38.57
2023-03-30T00:52:43.986Z,38.64
2023-03-30T00:53:10.498Z,38.25
2023-03-30T00:53:35.569Z,38.44
2023-03-30T00:54:04.874Z,38.36
2023-03-30T00:54:26.654Z,38.50
2023-03-30T00:54:48.765Z,38.41
2023-03-30T00:55:12.576Z,38.47
2023-03-30T00:55:37.301Z,38.40
2023-03-30T00:56:03.155Z,38.24
2023-03-30T00:56:29.268Z,38.34
2023-03-30T00:56:51.113Z,38.60
2023-03-30T00:57:14.531Z,38.54
2023-03-30T00:57:38.890Z,38.60
2023-03-30T00:58:02.633Z,38.82
2023-03-30T00:58:27.392Z,38.53
2023-03-30T00:58:50.533Z,38.69
2023-03-30T00:59:13.130Z,38.53
2023-03-30T00:59:36.083Z,38.40
2023-03-30T00:59:57.828Z,38.64
2023-03-30T01:00:19.796Z,38.74
2023-03-30T01:00:43.330Z,38.68
2023-03-30T01:01:08.472Z,38.47
2023-03-30T01:01:34.442Z,38.40
2023-03-30T01:01:56.404Z,38.56
2023-03-30T01:02:18.860Z,38.59
2023-03-30T01:02:45.995Z,38.42
2023-03-30T01:03:14.926Z,38.42
2023-03-30T01:03:43.355Z,38.39
2023-03-30T01:04:08.215Z,38.48
2023-03-30T01:04:29.875Z,38.51
2023-03-30T01:04:57.444Z,38.29
2023-03-30T01:05:19.345Z,38.28
2023-03-30T01:05:44.774Z,38.63
2023-03-30T01:06:07.679Z,38.48
2023-03-30T01:06:31.511Z,38.39
2023-03-30T01:06:55.089Z,38.41
2023-03-30T01:07:18.601Z,38.23
2023-03-30T01:07:42.100Z,38.25
2023-03-30T01:08:07.589Z,38.32
2023-03-30T01:08:32.400Z,38.50
2023-03-30T01:08:54.968Z,38.44
2023-03-30T01:09:18.106Z,38.39
2023-03-30T01:09:40.777Z,38.40
2023-03-30T01:10:02.436Z,38.52
2023-03-30T01:10:26.048Z,38.73
2023-03-30T01:10:47.881Z,38.54
2023-03-30T01:11:09.983Z,38.45
2023-03-30T01:11:31.593Z,38.53
2023-03-30T01:11:54.277Z,38.79
2023-03-30T01:12:15.968Z,38.53
2023-03-30T01:12:38.975Z,38.30
2023-03-30T01:13:00.879Z,38.61
2023-03-30T01:13:23.899Z,38.46
2023-03-30T01:13:47.988Z,38.53
2023-03-30T01:14:12.654Z,38.47
2023-03-30T01:14:35.448Z,38.27
2023-03-30T01:14:58.429Z,38.52
2023-03-30T01:15:21.987Z,38.44
2023-03-30T01:16:01.320Z,38.39
2023-03-30T01:16:31.271Z,38.67
2023-03-30T01:17:01.473Z,38.20
2023-03-30T01:17:29.479Z,38.69
2023-03-30T01:18:08.756Z,38.41
2023-03-30T01:18:44.751Z,38.33
2023-03-30T01:19:25.542Z,38.38
2023-03-30T01:20:25.553Z,38.21
2023-03-30T01:21:08.769Z,38.32
2023-03-30T01:21:55.559Z,38.29
2023-03-30T01:23:03.583Z,38.44
2023-03-30T01:24:08.537Z,38.50
2023-03-30T01:24:54.960Z,38.86
2023-03-30T01:25:45.611Z,38.80
2023-03-30T01:26:30.078Z,39.08
2023-03-30T01:26:56.398Z,39.23
2023-03-30T01:27:40.073Z,38.97
2023-03-30T01:28:26.048Z,39.18
2023-03-30T01:28:53.494Z,39.00
2023-03-30T01:29:26.218Z,38.82
2023-03-30T01:30:09.097Z,38.98
2023-03-30T01:30:43.642Z,38.78
2023-03-30T01:31:29.885Z,38.80
2023-03-30T01:32:23.091Z,38.91
2023-03-30T01:33:15.574Z,38.88
2023-03-30T01:33:59.133Z,38.84
2023-03-30T01:35:10.228Z,39.04
2023-03-30T01:35:50.844Z,38.74
2023-03-30T01:36:31.022Z,38.88
2023-03-30T01:37:15.322Z,38.86
2023-03-30T01:38:04.316Z,38.73
2023-03-30T01:39:08.641Z,38.71
2023-03-30T01:39:41.624Z,38.76
2023-03-30T01:40:09.992Z,38.55
2023-03-30T01:40:37.925Z,38.42
2023-03-30T01:41:10.768Z,38.49
2023-03-30T01:41:37.317Z,38.66
2023-03-30T01:42:03.672Z,38.26
2023-03-30T01:42:37.115Z,38.31
2023-03-30T01:43:08.375Z,38.28
2023-03-30T01:43:38.901Z,38.33
2023-03-30T01:44:06.514Z,38.59
2023-03-30T01:44:40.806Z,38.53
2023-03-30T01:45:11.454Z,38.29
2023-03-30T01:45:44.672Z,38.13
2023-03-30T01:46:14.301Z,37.95
2023-03-30T01:46:40.920Z,37.99
2023-03-30T01:47:09.823Z,38.09
2023-03-30T01:47:37.782Z,38.36
2023-03-30T01:48:05.687Z,38.53
2023-03-30T01:48:35.783Z,38.96
2023-03-30T01:49:04.502Z,38.53
2023-03-30T01:49:30.339Z,38.46
2023-03-30T01:49:58.812Z,37.99
2023-03-30T01:50:25.657Z,38.11
2023-03-30T01:50:52.720Z,38.18
2023-03-30T01:51:20.544Z,38.35
2023-03-30T01:51:47.861Z,38.20
2023-03-30T01:52:17.922Z,38.24
2023-03-30T01:52:50.320Z,37.84
2023-03-30T01:53:17.497Z,37.90
2023-03-30T01:53:46.517Z,37.79
2023-03-30T01:54:13.887Z,37.98
2023-03-30T01:54:41.406Z,37.84
2023-03-30T01:55:10.234Z,37.75
2023-03-30T01:55:35.403Z,37.76
2023-03-30T01:56:03.690Z,37.40
2023-03-30T01:56:30.622Z,37.60
2023-03-30T01:56:57.088Z,37.49
2023-03-30T01:57:22.147Z,37.46
2023-03-30T01:57:47.808Z,37.34
2023-03-30T01:58:15.293Z,37.43
2023-03-30T01:58:44.103Z,37.60
2023-03-30T01:59:09.822Z,37.39
2023-03-30T01:59:38.953Z,37.60
2023-03-30T02:00:13.958Z,37.65
2023-03-30T02:00:38.211Z,37.30
2023-03-30T02:01:02.321Z,37.13
2023-03-30T02:01:27.944Z,37.36
2023-03-30T02:01:54.206Z,37.15
2023-03-30T02:02:20.533Z,37.20
2023-03-30T02:02:47.342Z,37.37
2023-03-30T02:03:15.073Z,37.05
2023-03-30T02:03:40.818Z,37.30
2023-03-30T02:04:05.408Z,37.26
2023-03-30T02:04:31.281Z,37.20
2023-03-30T02:04:57.548Z,37.11
2023-03-30T02:05:23.488Z,37.25
2023-03-30T02:05:49.221Z,37.07
2023-03-30T02:06:18.590Z,36.96
2023-03-30T02:06:47.517Z,37.39
2023-03-30T02:07:14.269Z,37.28
2023-03-30T02:07:39.584Z,37.48
2023-03-30T02:08:06.325Z,37.25
2023-03-30T02:08:32.608Z,37.03
2023-03-30T02:08:59.302Z,37.23
2023-03-30T02:09:26.499Z,37.11
2023-03-30T02:09:52.263Z,36.88
2023-03-30T02:10:16.274Z,36.91
2023-03-30T02:10:39.416Z,36.75
2023-03-30T02:11:03.338Z,36.90
2023-03-30T02:11:28.123Z,37.01
2023-03-30T02:11:53.571Z,36.98
2023-03-30T02:12:15.461Z,37.12
2023-03-30T02:12:39.826Z,37.12
2023-03-30T02:13:02.946Z,36.85
2023-03-30T02:13:26.548Z,37.04
2023-03-30T02:13:51.024Z,36.63
2023-03-30T02:14:16.471Z,36.65
2023-03-30T02:14:41.025Z,36.52
2023-03-30T02:15:07.674Z,36.64
2023-03-30T02:15:38.282Z,36.69
2023-03-30T02:16:05.894Z,36.77
2023-03-30T02:16:34.268Z,36.75
2023-03-30T02:17:00.446Z,36.66
2023-03-30T02:17:24.708Z,36.81
2023-03-30T02:17:47.794Z,36.50
2023-03-30T02:18:10.473Z,36.87
2023-03-30T02:18:32.202Z,36.78
2023-03-30T02:18:54.621Z,36.60
2023-03-30T02:19:17.991Z,36.92
2023-03-30T02:19:39.966Z,36.80
2023-03-30T02:20:02.032Z,36.97
2023-03-30T02:20:23.698Z,36.94
2023-03-30T02:20:47.379Z,37.23
2023-03-30T02:21:09.905Z,37.12
2023-03-30T02:21:32.798Z,37.43
2023-03-30T02:21:55.072Z,37.13
2023-03-30T02:22:20.028Z,37.00
2023-03-30T02:22:42.576Z,37.07
2023-03-30T02:23:06.061Z,37.03
2023-03-30T02:23:35.003Z,36.90
2023-03-30T02:23:59.845Z,37.07
2023-03-30T02:24:27.339Z,36.68
2023-03-30T02:24:52.824Z,36.67
2023-03-30T02:25:15.688Z,36.92
2023-03-30T02:25:38.568Z,36.67
2023-03-30T02:26:00.536Z,36.64
2023-03-30T02:26:22.995Z,36.79
2023-03-30T02:26:46.893Z,36.48
2023-03-30T02:27:08.479Z,36.48
2023-03-30T02:27:31.897Z,36.60
2023-03-30T02:27:53.667Z,36.31
2023-03-30T02:28:16.597Z,36.70
2023-03-30T02:28:39.435Z,36.46
2023-03-30T02:29:02.173Z,36.23
2023-03-30T02:29:23.774Z,36.58
2023-03-30T02:29:46.128Z,36.47
2023-03-30T02:30:10.615Z,36.79
2023-03-30T02:30:33.691Z,36.65
2023-03-30T02:30:55.573Z,36.29
2023-03-30T02:31:20.794Z,36.27
2023-03-30T02:31:44.576Z,36.26
2023-03-30T02:32:06.664Z,36.41
2023-03-30T02:32:33.688Z,36.55
2023-03-30T02:32:57.136Z,36.18
2023-03-30T02:33:26.470Z,36.14
2023-03-30T02:34:05.437Z,36.05
2023-03-30T02:34:45.846Z,35.92
2023-03-30T02:35:22.225Z,36.18
2023-03-30T02:35:59.650Z,36.09
2023-03-30T02:36:40.346Z,36.24
2023-03-30T02:37:16.545Z,36.19
2023-03-30T02:37:50.332Z,36.05
2023-03-30T02:38:32.166Z,36.21
2023-03-30T02:39:06.803Z,36.19
2023-03-30T02:39:41.876Z,35.98
2023-03-30T02:40:22.271Z,36.10
2023-03-30T02:40:54.145Z,35.84
2023-03-30T02:41:28.371Z,36.02
2023-03-30T02:42:28.426Z,35.94
2023-03-30T02:43:11.636Z,35.93
2023-03-30T02:43:45.508Z,35.98
2023-03-30T02:44:18.632Z,35.60
2023-03-30T02:44:46.308Z,35.69
2023-03-30T02:45:18.607Z,36.05
2023-03-30T02:45:51.403Z,36.16
2023-03-30T02:46:27.241Z,36.41
2023-03-30T02:47:01.559Z,36.17
2023-03-30T02:47:36.253Z,36.15
2023-03-30T02:48:14.824Z,36.05
2023-03-30T02:48:42.562Z,36.14
2023-03-30T02:49:16.602Z,36.05
2023-03-30T02:49:56.432Z,35.68
2023-03-30T02:50:25.745Z,35.92
2023-03-30T02:50:54.608Z,36.31
2023-03-30T02:51:42.735Z,36.28
2023-03-30T02:52:14.921Z,36.14
2023-03-30T02:52:52.354Z,35.96
2023-03-30T02:53:24.874Z,35.74
2023-03-30T02:53:56.624Z,36.21
2023-03-30T02:54:48.591Z,36.46
2023-03-30T02:55:22.291Z,36.09
2023-03-30T02:56:22.116Z,36.34
2023-03-30T02:56:58.868Z,36.02
2023-03-30T02:57:31.236Z,36.07
2023-03-30T02:58:18.950Z,36.60
2023-03-30T02:59:14.184Z,36.67
2023-03-30T02:59:42.387Z,36.96
2023-03-30T03:00:13.005Z,37.16
2023-03-30T03:00:41.727Z,37.15
2023-03-30T03:01:14.019Z,36.71
2023-03-30T03:01:50.689Z,37.01
2023-03-30T03:02:19.965Z,37.07
2023-03-30T03:02:52.448Z,37.75
2023-03-30T03:03:27.584Z,37.94
2023-03-30T03:03:54.715Z,38.12
2023-03-30T03:04:18.813Z,38.03
2023-03-30T03:04:57.447Z,38.44
2023-03-30T03:05:38.591Z,38.93
2023-03-30T03:06:09.333Z,38.96
2023-03-30T03:06:38.333Z,38.62
2023-03-30T03:07:02.575Z,38.91
2023-03-30T03:07:27.826Z,38.87
2023-03-30T03:07:50.453Z,38.88
2023-03-30T03:08:15.899Z,39.45
2023-03-30T03:08:43.026Z,39.20
2023-03-30T03:09:07.251Z,39.15
2023-03-30T03:09:29.707Z,39.09
2023-03-30T03:09:53.170Z,39.50
2023-03-30T03:10:16.004Z,39.52
2023-03-30T03:10:38.774Z,39.42
2023-03-30T03:11:01.476Z,39.93
2023-03-30T03:11:25.774Z,39.87
2023-03-30T03:11:49.306Z,39.62
2023-03-30T03:12:11.035Z,39.69
2023-03-30T03:12:33.058Z,39.34
2023-03-30T03:12:54.688Z,39.58
2023-03-30T03:13:20.592Z,39.64
2023-03-30T03:13:42.753Z,39.71
2023-03-30T03:14:04.587Z,39.76
2023-03-30T03:14:29.548Z,40.03
2023-03-30T03:14:54.069Z,39.91
2023-03-30T03:15:16.461Z,39.87
2023-03-30T03:15:56.768Z,40.24
2023-03-30T03:16:21.261Z,40.46
2023-03-30T03:17:05.040Z,40.23
2023-03-30T03:17:34.751Z,40.38
2023-03-30T03:17:59.079Z,40.12
2023-03-30T03:18:20.782Z,40.45
2023-03-30T03:18:42.551Z,40.23
2023-03-30T03:19:05.656Z,40.12
2023-03-30T03:19:27.269Z,40.38
2023-03-30T03:19:49.327Z,40.04
2023-03-30T03:20:13.730Z,40.13
2023-03-30T03:20:36.652Z,40.14
2023-03-30T03:20:59.143Z,40.37
2023-03-30T03:21:20.810Z,40.45
2023-03-30T03:21:43.447Z,40.52
2023-03-30T03:22:05.191Z,39.54
2023-03-30T03:22:30.423Z,39.99
2023-03-30T03:22:52.002Z,39.56
2023-03-30T03:23:14.602Z,39.75
2023-03-30T03:23:42.536Z,39.35
2023-03-30T03:24:06.615Z,38.87
2023-03-30T03:24:52.104Z,38.89
2023-03-30T03:25:27.566Z,38.88
2023-03-30T03:25:54.004Z,38.69
2023-03-30T03:26:18.535Z,38.79
2023-03-30T03:26:40.409Z,38.95
2023-03-30T03:27:02.377Z,39.03
2023-03-30T03:27:28.497Z,38.94
2023-03-30T03:28:11.422Z,38.89
2023-03-30T03:28:42.851Z,38.75
2023-03-30T03:29:05.190Z,38.76
2023-03-30T03:29:27.226Z,39.05
2023-03-30T03:29:50.202Z,38.93
2023-03-30T03:30:12.867Z,38.96
2023-03-30T03:30:40.641Z,38.79
2023-03-30T03:31:13.246Z,39.09
2023-03-30T03:31:35.804Z,38.85
2023-03-30T03:31:57.638Z,38.99
2023-03-30T03:32:22.798Z,38.81
2023-03-30T03:32:45.471Z,39.23
2023-03-30T03:33:08.218Z,39.08
2023-03-30T03:33:31.861Z,39.29
2023-03-30T03:34:26.021Z,39.61
2023-03-30T03:34:53.667Z,39.75
2023-03-30T03:35:15.736Z,39.92
2023-03-30T03:35:39.331Z,39.74
2023-03-30T03:36:03.697Z,40.16
2023-03-30T03:36:28.850Z,40.37
2023-03-30T03:36:53.367Z,40.39
2023-03-30T03:37:15.335Z,40.77
2023-03-30T03:37:39.441Z,40.62
2023-03-30T03:38:02.106Z,40.33
2023-03-30T03:38:24.238Z,40.58
2023-03-30T03:38:46.613Z,40.85
2023-03-30T03:39:11.461Z,40.76
2023-03-30T03:39:33.421Z,40.62
2023-03-30T03:40:01.508Z,40.80
2023-03-30T03:40:24.010Z,40.66
2023-03-30T03:40:51.717Z,40.65
2023-03-30T03:41:13.488Z,41.02
2023-03-30T03:41:37.034Z,41.10
2023-03-30T03:41:58.862Z,40.86
2023-03-30T03:42:21.523Z,40.84
2023-03-30T03:42:54.838Z,41.04
2023-03-30T03:43:16.630Z,40.36
2023-03-30T03:43:38.350Z,40.42
2023-03-30T03:44:00.088Z,40.75
2023-03-30T03:44:22.725Z,40.83
2023-03-30T03:44:44.338Z,41.43
2023-03-30T03:45:07.728Z,41.30
2023-03-30T03:45:31.538Z,41.25
2023-03-30T03:45:54.932Z,41.27
2023-03-30T03:46:16.669Z,40.94
2023-03-30T03:46:39.995Z,40.90
2023-03-30T03:47:01.753Z,41.00
2023-03-30T03:47:23.525Z,41.12
2023-03-30T03:47:45.797Z,41.47
2023-03-30T03:48:08.829Z,41.62
2023-03-30T03:48:39.444Z,41.33
2023-03-30T03:49:07.501Z,41.01
2023-03-30T03:49:29.325Z,41.33
2023-03-30T03:49:51.930Z,42.04
2023-03-30T03:50:13.859Z,41.78
2023-03-30T03:50:53.271Z,41.87
2023-03-30T03:51:44.770Z,41.79
2023-03-30T03:52:10.752Z,41.51
2023-03-30T03:52:35.478Z,41.31
2023-03-30T03:53:14.612Z,41.16
2023-03-30T03:53:38.186Z,41.29
2023-03-30T03:54:04.558Z,41.00
2023-03-30T03:54:26.368Z,41.01
2023-03-30T03:54:48.714Z,41.29
2023-03-30T03:55:14.999Z,40.80
2023-03-30T03:55:38.308Z,40.66
2023-03-30T03:56:02.142Z,40.81
2023-03-30T03:56:25.070Z,40.73
2023-03-30T03:56:47.123Z,41.01
2023-03-30T03:57:10.319Z,41.24
2023-03-30T03:57:33.363Z,41.26
2023-03-30T03:57:55.287Z,41.39
2023-03-30T03:58:18.146Z,41.53
2023-03-30T03:58:39.816Z,41.63
2023-03-30T03:59:03.518Z,41.88
2023-03-30T03:59:25.352Z,41.89
2023-03-30T03:59:47.028Z,41.69
2023-03-30T04:00:15.642Z,41.71
2023-03-30T04:00:40.283Z,42.04
2023-03-30T04:01:03.046Z,41.80
2023-03-30T04:01:25.206Z,41.70
2023-03-30T04:01:47.954Z,41.92
2023-03-30T04:02:09.836Z,42.12
2023-03-30T04:02:31.968Z,42.03
2023-03-30T04:02:53.741Z,41.92
2023-03-30T04:03:16.916Z,41.86
2023-03-30T04:03:38.565Z,42.08
2023-03-30T04:04:03.880Z,42.24
2023-03-30T04:04:25.788Z,42.18
2023-03-30T04:04:52.506Z,41.79
2023-03-30T04:05:14.584Z,41.99
2023-03-30T04:05:36.466Z,41.92
2023-03-30T04:06:00.398Z,42.30
2023-03-30T04:06:23.376Z,42.18
2023-03-30T04:06:45.413Z,42.11
2023-03-30T04:07:07.013Z,41.93
2023-03-30T04:07:29.467Z,42.29
2023-03-30T04:07:53.436Z,42.04
2023-03-30T04:08:18.019Z,41.98
2023-03-30T04:08:41.179Z,42.12
2023-03-30T04:09:15.470Z,41.90
2023-03-30T04:10:00.298Z,42.12
2023-03-30T04:10:41.742Z,42.31
2023-03-30T04:11:30.416Z,42.24
2023-03-30T04:12:15.496Z,42.05
2023-03-30T04:13:00.297Z,42.15
2023-03-30T04:13:41.695Z,42.39
2023-03-30T04:14:13.466Z,42.63
2023-03-30T04:14:43.409Z,42.70
2023-03-30T04:15:12.743Z,42.85
2023-03-30T04:15:43.181Z,42.87
2023-03-30T04:16:18.068Z,43.16
2023-03-30T04:16:58.182Z,43.06
2023-03-30T04:17:49.891Z,42.79
2023-03-30T04:18:47.947Z,43.28
2023-03-30T04:19:25.350Z,43.00
2023-03-30T04:20:12.038Z,42.77
2023-03-30T04:20:43.920Z,43.01
2023-03-30T04:21:17.635Z,43.08
2023-03-30T04:21:46.780Z,43.11
2023-03-30T04:22:33.473Z,42.68
2023-03-30T04:23:21.873Z,42.98
2023-03-30T04:24:12.099Z,43.13
2023-03-30T04:24:59.404Z,43.07
2023-03-30T04:25:39.847Z,43.39
2023-03-30T04:26:20.483Z,43.22
2023-03-30T04:26:51.612Z,42.96
2023-03-30T04:27:28.738Z,42.16
2023-03-30T04:28:21.584Z,43.14
2023-03-30T04:28:47.070Z,43.04
2023-03-30T04:29:29.625Z,43.00
2023-03-30T04:30:18.747Z,43.29
2023-03-30T04:31:01.110Z,43.25
2023-03-30T04:31:54.446Z,42.82
2023-03-30T04:32:38.642Z,43.12
2023-03-30T04:33:14.614Z,42.93
2023-03-30T04:33:52.871Z,42.75
2023-03-30T04:34:37.379Z,43.09
2023-03-30T04:35:08.484Z,42.49
2023-03-30T04:35:50.354Z,42.41
2023-03-30T04:36:32.282Z,43.06
2023-03-30T04:37:10.556Z,42.98
2023-03-30T04:37:52.372Z,42.70
2023-03-30T04:38:31.567Z,42.90
2023-03-30T04:39:13.653Z,42.83
2023-03-30T04:39:57.759Z,43.01
2023-03-30T04:40:40.614Z,42.62
2023-03-30T04:41:14.104Z,42.18
2023-03-30T04:42:14.474Z,42.77
2023-03-30T04:43:02.535Z,42.98
2023-03-30T04:43:45.539Z,42.65
2023-03-30T04:44:20.676Z,42.61
2023-03-30T04:44:55.186Z,43.07
2023-03-30T04:45:37.840Z,42.96
2023-03-30T04:46:16.151Z,42.54
2023-03-30T04:46:57.811Z,43.24
2023-03-30T04:47:39.866Z,43.05
2023-03-30T04:48:22.387Z,43.09
2023-03-30T04:49:04.398Z,43.17
2023-03-30T04:50:06.134Z,42.19
2023-03-30T04:50:49.370Z,42.97
2023-03-30T04:51:42.548Z,42.98
2023-03-30T04:52:04.184Z,42.40
2023-03-30T04:52:32.750Z,41.66
2023-03-30T04:53:25.263Z,41.90
2023-03-30T04:54:05.974Z,42.02
2023-03-30T04:54:54.468Z,42.29
2023-03-30T04:55:35.242Z,42.10
2023-03-30T04:56:16.678Z,42.14
2023-03-30T04:57:09.048Z,42.32
2023-03-30T04:57:43.078Z,42.60
2023-03-30T04:58:31.189Z,41.81
2023-03-30T04:59:04.977Z,41.58
2023-03-30T04:59:46.994Z,41.14
2023-03-30T05:00:21.892Z,41.04
2023-03-30T05:01:15.553Z,41.00
2023-03-30T05:01:55.724Z,41.15
2023-03-30T05:02:32.686Z,40.71
2023-03-30T05:03:14.320Z,40.80
2023-03-30T05:03:52.623Z,40.63
2023-03-30T05:04:38.948Z,40.50
2023-03-30T05:05:09.540Z,40.56
2023-03-30T05:05:51.238Z,40.28
2023-03-30T05:06:34.517Z,40.39
2023-03-30T05:07:02.601Z,40.13
2023-03-30T05:07:43.590Z,40.08
2023-03-30T05:08:17.687Z,40.53
2023-03-30T05:08:56.604Z,40.31
2023-03-30T05:09:36.903Z,40.53
2023-03-30T05:10:18.565Z,39.97
2023-03-30T05:11:02.500Z,40.22
2023-03-30T05:11:33.385Z,40.04
2023-03-30T05:12:11.426Z,39.76
2023-03-30T05:12:41.467Z,39.69
2023-03-30T05:13:11.374Z,39.96
2023-03-30T05:13:51.787Z,40.00
2023-03-30T05:14:21.780Z,39.64
2023-03-30T05:15:10.189Z,39.65
2023-03-30T05:15:43.567Z,39.74
2023-03-30T05:16:24.113Z,39.64
2023-03-30T05:17:04.596Z,39.90
2023-03-30T05:17:47.321Z,39.71
2023-03-30T05:18:21.554Z,39.85
2023-03-30T05:18:52.108Z,39.72
2023-03-30T05:19:31.217Z,39.59
2023-03-30T05:19:53.438Z,39.59
2023-03-30T05:20:23.962Z,39.57
2023-03-30T05:21:09.576Z,39.50
2023-03-30T05:21:57.330Z,39.55
2023-03-30T05:22:42.005Z,39.62
2023-03-30T05:23:24.542Z,39.82
2023-03-30T05:23:46.372Z,39.41
2023-03-30T05:24:39.972Z,39.55
2023-03-30T05:25:10.681Z,39.59
2023-03-30T05:26:00.370Z,39.92
2023-03-30T05:26:41.806Z,39.90
2023-03-30T05:27:11.231Z,39.50
2023-03-30T05:27:47.242Z,39.85
2023-03-30T05:28:20.844Z,39.71
2023-03-30T05:29:05.743Z,39.95
2023-03-30T05:30:08.626Z,39.54
2023-03-30T05:30:36.367Z,39.80
2023-03-30T05:31:17.281Z,39.64
2023-03-30T05:32:09.662Z,39.75
2023-03-30T05:33:01.882Z,39.81
2023-03-30T05:33:34.020Z,39.53
2023-03-30T05:34:14.341Z,39.66
2023-03-30T05:34:58.908Z,39.28
2023-03-30T05:35:38.381Z,39.34
2023-03-30T05:36:00.119Z,39.27
2023-03-30T05:36:38.549Z,39.54
2023-03-30T05:37:11.693Z,39.44
2023-03-30T05:37:38.768Z,39.31
2023-03-30T05:38:19.701Z,39.16
2023-03-30T05:39:00.050Z,39.04
2023-03-30T05:39:41.608Z,39.49
2023-03-30T05:40:21.640Z,39.82
2023-03-30T05:41:08.176Z,39.29
2023-03-30T05:41:48.334Z,39.33
2023-03-30T05:42:18.858Z,39.49
2023-03-30T05:43:08.850Z,39.33
2023-03-30T05:44:04.985Z,39.16
2023-03-30T05:44:30.916Z,39.15
2023-03-30T05:45:11.418Z,39.21
2023-03-30T05:45:57.946Z,39.27
2023-03-30T05:46:58.089Z,39.04
2023-03-30T05:47:46.970Z,39.25
2023-03-30T05:48:37.817Z,39.35
2023-03-30T05:49:18.619Z,39.17
2023-03-30T05:49:58.687Z,39.37
2023-03-30T05:50:33.608Z,39.13
2023-03-30T05:51:02.138Z,39.37
2023-03-30T05:51:32.063Z,39.02
2023-03-30T05:52:13.157Z,38.96
2023-03-30T05:52:56.890Z,39.07
2023-03-30T05:53:40.658Z,39.50
2023-03-30T05:54:29.579Z,39.25
2023-03-30T05:55:04.418Z,39.16
2023-03-30T05:55:46.535Z,39.71
2023-03-30T05:56:31.007Z,39.31
2023-03-30T05:57:11.820Z,39.24
2023-03-30T05:57:42.825Z,39.07
2023-03-30T05:58:19.317Z,39.44
2023-03-30T05:58:49.757Z,39.57
2023-03-30T05:59:29.661Z,39.44
2023-03-30T06:00:16.084Z,39.16
2023-03-30T06:00:52.481Z,39.16
2023-03-30T06:01:26.030Z,39.18
2023-03-30T06:01:47.927Z,39.41
2023-03-30T06:02:10.980Z,38.98
2023-03-30T06:02:33.161Z,39.18
2023-03-30T06:03:01.113Z,38.91
2023-03-30T06:03:26.623Z,38.73
2023-03-30T06:03:48.832Z,39.03
2023-03-30T06:04:11.807Z,38.95
2023-03-30T06:04:33.752Z,38.99
2023-03-30T06:04:56.159Z,38.78
2023-03-30T06:05:17.929Z,39.08
2023-03-30T06:05:43.537Z,38.89
2023-03-30T06:06:06.431Z,38.89
2023-03-30T06:06:28.158Z,38.85
2023-03-30T06:06:50.786Z,38.78
2023-03-30T06:07:12.523Z,39.08
2023-03-30T06:07:34.234Z,38.74
2023-03-30T06:07:56.061Z,38.67
2023-03-30T06:08:22.064Z,39.23
2023-03-30T06:08:44.452Z,39.43
2023-03-30T06:09:11.267Z,39.34
2023-03-30T06:09:33.954Z,39.27
2023-03-30T06:10:01.450Z,38.87
2023-03-30T06:10:24.235Z,38.93
2023-03-30T06:10:52.380Z,39.12
2023-03-30T06:11:14.977Z,39.11
2023-03-30T06:11:41.642Z,39.01
2023-03-30T06:12:15.446Z,39.30
2023-03-30T06:12:39.313Z,39.06
2023-03-30T06:13:06.848Z,39.03
2023-03-30T06:13:40.582Z,38.56
2023-03-30T06:14:02.194Z,39.00
2023-03-30T06:14:24.456Z,39.03
2023-03-30T06:15:05.733Z,38.54
2023-03-30T06:15:41.383Z,38.85
2023-03-30T06:16:06.927Z,38.81
2023-03-30T06:16:29.943Z,38.63
2023-03-30T06:16:52.176Z,38.67
2023-03-30T06:17:15.874Z,38.61
2023-03-30T06:17:38.577Z,38.64
2023-03-30T06:18:03.919Z,38.98
2023-03-30T06:18:27.933Z,38.81
2023-03-30T06:19:09.777Z,38.89
2023-03-30T06:19:32.616Z,38.73
2023-03-30T06:19:54.431Z,38.87
2023-03-30T06:20:16.519Z,38.40
2023-03-30T06:20:41.319Z,38.67
2023-03-30T06:21:07.194Z,38.48
2023-03-30T06:21:42.208Z,38.38
2023-03-30T06:22:32.526Z,38.27
2023-03-30T06:23:05.577Z,38.25
2023-03-30T06:23:27.180Z,38.57
2023-03-30T06:23:51.635Z,38.29
2023-03-30T06:24:18.645Z,38.62